sensor_id;sensor_type;location;lat;lon;timestamp;P1;durP1;ratioP1;P2;durP2;ratioP2
11777;SDS011;5946;51.770;8.548;2023-11-21T00:00:13;27.50;;;19.77;;
11777;SDS011;5946;51.770;8.548;2023-11-21T00:02:39;29.90;;;18.67;;
11777;SDS011;5946;51.770;8.548;2023-11-21T00:05:07;28.97;;;16.60;;
11777;SDS011;5946;51.770;8.548;2023-11-21T00:07:34;24.67;;;16.37;;
11777;SDS011;5946;51.770;8.548;2023-11-21T00:10:00;25.90;;;17.17;;
11777;SDS011;5946;51.770;8.548;2023-11-21T00:12:27;22.10;;;15.20;;
11777;SDS011;5946;51.770;8.548;2023-11-21T00:14:54;29.33;;;16.90;;
11777;SDS011;5946;51.770;8.548;2023-11-21T00:17:20;24.50;;;15.20;;
11777;SDS011;5946;51.770;8.548;2023-11-21T00:19:46;34.40;;;19.67;;
11777;SDS011;5946;51.770;8.548;2023-11-21T00:22:12;31.33;;;23.97;;
11777;SDS011;5946;51.770;8.548;2023-11-21T00:24:38;38.67;;;25.83;;
11777;SDS011;5946;51.770;8.548;2023-11-21T00:27:04;36.73;;;25.80;;
11777;SDS011;5946;51.770;8.548;2023-11-21T00:29:31;34.33;;;25.37;;
11777;SDS011;5946;51.770;8.548;2023-11-21T00:31:57;36.93;;;26.77;;
11777;SDS011;5946;51.770;8.548;2023-11-21T00:34:23;36.93;;;27.10;;
11777;SDS011;5946;51.770;8.548;2023-11-21T00:36:49;31.30;;;24.37;;
11777;SDS011;5946;51.770;8.548;2023-11-21T00:39:15;32.13;;;23.07;;
11777;SDS011;5946;51.770;8.548;2023-11-21T00:41:41;33.37;;;24.40;;
11777;SDS011;5946;51.770;8.548;2023-11-21T00:44:07;32.93;;;23.80;;
11777;SDS011;5946;51.770;8.548;2023-11-21T00:46:33;33.73;;;24.77;;
11777;SDS011;5946;51.770;8.548;2023-11-21T00:48:59;32.80;;;23.17;;
11777;SDS011;5946;51.770;8.548;2023-11-21T00:51:25;37.80;;;23.67;;
11777;SDS011;5946;51.770;8.548;2023-11-21T00:53:51;29.27;;;22.17;;
11777;SDS011;5946;51.770;8.548;2023-11-21T00:56:17;35.03;;;24.50;;
11777;SDS011;5946;51.770;8.548;2023-11-21T00:58:43;38.33;;;25.00;;
11777;SDS011;5946;51.770;8.548;2023-11-21T01:01:11;34.07;;;23.93;;
11777;SDS011;5946;51.770;8.548;2023-11-21T01:03:37;30.03;;;22.27;;
11777;SDS011;5946;51.770;8.548;2023-11-21T01:06:03;34.43;;;24.00;;
11777;SDS011;5946;51.770;8.548;2023-11-21T01:08:32;39.10;;;23.60;;
11777;SDS011;5946;51.770;8.548;2023-11-21T01:10:58;41.10;;;25.07;;
11777;SDS011;5946;51.770;8.548;2023-11-21T01:13:24;35.60;;;23.80;;
11777;SDS011;5946;51.770;8.548;2023-11-21T01:15:53;36.63;;;23.63;;
11777;SDS011;5946;51.770;8.548;2023-11-21T01:18:19;38.93;;;24.10;;
11777;SDS011;5946;51.770;8.548;2023-11-21T01:20:45;38.80;;;24.20;;
11777;SDS011;5946;51.770;8.548;2023-11-21T01:23:12;38.70;;;24.00;;
11777;SDS011;5946;51.770;8.548;2023-11-21T01:25:38;34.53;;;21.60;;
11777;SDS011;5946;51.770;8.548;2023-11-21T01:28:04;33.87;;;22.13;;
11777;SDS011;5946;51.770;8.548;2023-11-21T01:30:30;35.93;;;23.47;;
11777;SDS011;5946;51.770;8.548;2023-11-21T01:32:57;35.17;;;23.37;;
11777;SDS011;5946;51.770;8.548;2023-11-21T01:35:23;32.23;;;22.30;;
11777;SDS011;5946;51.770;8.548;2023-11-21T01:37:49;37.13;;;22.80;;
11777;SDS011;5946;51.770;8.548;2023-11-21T01:40:15;32.00;;;22.70;;
11777;SDS011;5946;51.770;8.548;2023-11-21T01:42:42;27.97;;;20.90;;
11777;SDS011;5946;51.770;8.548;2023-11-21T01:45:12;31.63;;;21.50;;
11777;SDS011;5946;51.770;8.548;2023-11-21T01:47:38;35.80;;;23.43;;
11777;SDS011;5946;51.770;8.548;2023-11-21T01:50:06;29.50;;;21.67;;
11777;SDS011;5946;51.770;8.548;2023-11-21T01:52:33;36.17;;;23.13;;
11777;SDS011;5946;51.770;8.548;2023-11-21T01:55:00;32.23;;;22.37;;
11777;SDS011;5946;51.770;8.548;2023-11-21T01:57:26;32.73;;;22.87;;
11777;SDS011;5946;51.770;8.548;2023-11-21T01:59:52;36.90;;;23.80;;
11777;SDS011;5946;51.770;8.548;2023-11-21T02:02:19;34.90;;;23.10;;
11777;SDS011;5946;51.770;8.548;2023-11-21T02:04:45;37.17;;;23.80;;
11777;SDS011;5946;51.770;8.548;2023-11-21T02:07:12;34.67;;;23.43;;
11777;SDS011;5946;51.770;8.548;2023-11-21T02:09:37;36.40;;;24.83;;
11777;SDS011;5946;51.770;8.548;2023-11-21T02:12:07;35.73;;;24.47;;
11777;SDS011;5946;51.770;8.548;2023-11-21T02:14:35;41.10;;;26.43;;
11777;SDS011;5946;51.770;8.548;2023-11-21T02:17:01;40.90;;;27.40;;
11777;SDS011;5946;51.770;8.548;2023-11-21T02:19:28;40.70;;;27.23;;
11777;SDS011;5946;51.770;8.548;2023-11-21T02:21:56;43.27;;;27.93;;
11777;SDS011;5946;51.770;8.548;2023-11-21T02:24:28;39.37;;;26.03;;
11777;SDS011;5946;51.770;8.548;2023-11-21T02:26:54;41.97;;;29.03;;
11777;SDS011;5946;51.770;8.548;2023-11-21T02:29:21;40.20;;;26.47;;
11777;SDS011;5946;51.770;8.548;2023-11-21T02:31:52;38.30;;;25.63;;
11777;SDS011;5946;51.770;8.548;2023-11-21T02:34:19;40.20;;;26.87;;
11777;SDS011;5946;51.770;8.548;2023-11-21T02:36:46;40.13;;;27.13;;
11777;SDS011;5946;51.770;8.548;2023-11-21T02:39:14;35.97;;;24.93;;
11777;SDS011;5946;51.770;8.548;2023-11-21T02:41:41;45.43;;;27.97;;
11777;SDS011;5946;51.770;8.548;2023-11-21T02:44:07;34.67;;;25.93;;
11777;SDS011;5946;51.770;8.548;2023-11-21T02:46:33;33.60;;;25.43;;
11777;SDS011;5946;51.770;8.548;2023-11-21T02:49:00;38.07;;;24.87;;
11777;SDS011;5946;51.770;8.548;2023-11-21T02:51:26;34.67;;;24.50;;
11777;SDS011;5946;51.770;8.548;2023-11-21T02:53:52;40.97;;;26.43;;
11777;SDS011;5946;51.770;8.548;2023-11-21T02:56:19;37.20;;;25.57;;
11777;SDS011;5946;51.770;8.548;2023-11-21T02:58:45;47.43;;;31.33;;
11777;SDS011;5946;51.770;8.548;2023-11-21T03:01:11;41.80;;;29.67;;
11777;SDS011;5946;51.770;8.548;2023-11-21T03:03:38;50.97;;;31.50;;
11777;SDS011;5946;51.770;8.548;2023-11-21T03:06:08;48.97;;;31.93;;
11777;SDS011;5946;51.770;8.548;2023-11-21T03:08:34;60.13;;;35.53;;
11777;SDS011;5946;51.770;8.548;2023-11-21T03:11:00;64.63;;;38.93;;
11777;SDS011;5946;51.770;8.548;2023-11-21T03:13:28;79.97;;;43.83;;
11777;SDS011;5946;51.770;8.548;2023-11-21T03:15:54;76.37;;;43.03;;
11777;SDS011;5946;51.770;8.548;2023-11-21T03:18:20;84.20;;;44.20;;
11777;SDS011;5946;51.770;8.548;2023-11-21T03:20:47;161.20;;;73.00;;
11777;SDS011;5946;51.770;8.548;2023-11-21T03:23:13;118.00;;;57.70;;
11777;SDS011;5946;51.770;8.548;2023-11-21T03:25:40;94.40;;;48.90;;
11777;SDS011;5946;51.770;8.548;2023-11-21T03:28:06;92.93;;;50.63;;
11777;SDS011;5946;51.770;8.548;2023-11-21T03:30:33;96.40;;;51.43;;
11777;SDS011;5946;51.770;8.548;2023-11-21T03:32:59;118.53;;;65.90;;
11777;SDS011;5946;51.770;8.548;2023-11-21T03:35:25;126.23;;;65.07;;
11777;SDS011;5946;51.770;8.548;2023-11-21T03:37:51;119.23;;;60.13;;
11777;SDS011;5946;51.770;8.548;2023-11-21T03:40:17;83.73;;;46.53;;
11777;SDS011;5946;51.770;8.548;2023-11-21T03:42:43;77.07;;;44.90;;
11777;SDS011;5946;51.770;8.548;2023-11-21T03:45:09;76.57;;;45.60;;
11777;SDS011;5946;51.770;8.548;2023-11-21T03:47:37;73.27;;;42.83;;
11777;SDS011;5946;51.770;8.548;2023-11-21T03:50:03;74.00;;;47.03;;
11777;SDS011;5946;51.770;8.548;2023-11-21T03:52:29;83.97;;;50.70;;
11777;SDS011;5946;51.770;8.548;2023-11-21T03:54:55;60.10;;;36.00;;
11777;SDS011;5946;51.770;8.548;2023-11-21T03:57:21;57.03;;;33.03;;
11777;SDS011;5946;51.770;8.548;2023-11-21T03:59:47;56.10;;;31.40;;
11777;SDS011;5946;51.770;8.548;2023-11-21T04:02:13;47.43;;;29.47;;
11777;SDS011;5946;51.770;8.548;2023-11-21T04:04:39;45.20;;;27.70;;
11777;SDS011;5946;51.770;8.548;2023-11-21T04:07:05;43.53;;;27.83;;
11777;SDS011;5946;51.770;8.548;2023-11-21T04:09:31;43.87;;;27.27;;
11777;SDS011;5946;51.770;8.548;2023-11-21T04:11:58;40.93;;;27.00;;
11777;SDS011;5946;51.770;8.548;2023-11-21T04:14:24;42.17;;;26.93;;
11777;SDS011;5946;51.770;8.548;2023-11-21T04:16:50;48.47;;;29.03;;
11777;SDS011;5946;51.770;8.548;2023-11-21T04:19:16;59.07;;;33.77;;
11777;SDS011;5946;51.770;8.548;2023-11-21T04:21:42;44.70;;;27.97;;
11777;SDS011;5946;51.770;8.548;2023-11-21T04:24:08;37.90;;;26.80;;
11777;SDS011;5946;51.770;8.548;2023-11-21T04:26:34;38.50;;;27.03;;
11777;SDS011;5946;51.770;8.548;2023-11-21T04:29:00;56.23;;;33.10;;
11777;SDS011;5946;51.770;8.548;2023-11-21T04:31:26;54.43;;;30.83;;
11777;SDS011;5946;51.770;8.548;2023-11-21T04:33:52;64.33;;;34.00;;
11777;SDS011;5946;51.770;8.548;2023-11-21T04:36:18;51.17;;;31.43;;
11777;SDS011;5946;51.770;8.548;2023-11-21T04:38:44;47.43;;;31.20;;
11777;SDS011;5946;51.770;8.548;2023-11-21T04:41:11;60.30;;;34.63;;
11777;SDS011;5946;51.770;8.548;2023-11-21T04:43:37;52.30;;;31.83;;
11777;SDS011;5946;51.770;8.548;2023-11-21T04:46:03;50.33;;;30.63;;
11777;SDS011;5946;51.770;8.548;2023-11-21T04:48:29;48.47;;;31.00;;
11777;SDS011;5946;51.770;8.548;2023-11-21T04:50:55;53.53;;;32.17;;
11777;SDS011;5946;51.770;8.548;2023-11-21T04:53:21;58.57;;;32.50;;
11777;SDS011;5946;51.770;8.548;2023-11-21T04:55:47;58.53;;;34.30;;
11777;SDS011;5946;51.770;8.548;2023-11-21T04:58:13;70.33;;;37.50;;
11777;SDS011;5946;51.770;8.548;2023-11-21T05:00:39;64.23;;;35.87;;
11777;SDS011;5946;51.770;8.548;2023-11-21T05:03:06;77.47;;;42.63;;
11777;SDS011;5946;51.770;8.548;2023-11-21T05:05:32;65.50;;;37.57;;
11777;SDS011;5946;51.770;8.548;2023-11-21T05:08:01;69.33;;;37.13;;
11777;SDS011;5946;51.770;8.548;2023-11-21T05:10:28;61.43;;;36.30;;
11777;SDS011;5946;51.770;8.548;2023-11-21T05:12:55;67.67;;;35.40;;
11777;SDS011;5946;51.770;8.548;2023-11-21T05:15:21;64.27;;;36.33;;
11777;SDS011;5946;51.770;8.548;2023-11-21T05:17:48;62.70;;;35.67;;
11777;SDS011;5946;51.770;8.548;2023-11-21T05:20:17;57.03;;;32.73;;
11777;SDS011;5946;51.770;8.548;2023-11-21T05:22:46;66.47;;;33.90;;
11777;SDS011;5946;51.770;8.548;2023-11-21T05:25:13;65.47;;;34.23;;
11777;SDS011;5946;51.770;8.548;2023-11-21T05:27:39;55.83;;;35.40;;
11777;SDS011;5946;51.770;8.548;2023-11-21T05:30:05;72.33;;;37.33;;
11777;SDS011;5946;51.770;8.548;2023-11-21T05:32:34;61.97;;;36.33;;
11777;SDS011;5946;51.770;8.548;2023-11-21T05:35:00;55.37;;;32.23;;
11777;SDS011;5946;51.770;8.548;2023-11-21T05:37:26;53.27;;;31.73;;
11777;SDS011;5946;51.770;8.548;2023-11-21T05:39:55;67.27;;;36.27;;
11777;SDS011;5946;51.770;8.548;2023-11-21T05:42:21;57.87;;;32.73;;
11777;SDS011;5946;51.770;8.548;2023-11-21T05:44:48;59.07;;;34.40;;
11777;SDS011;5946;51.770;8.548;2023-11-21T05:47:14;53.27;;;34.43;;
11777;SDS011;5946;51.770;8.548;2023-11-21T05:49:40;59.73;;;38.83;;
11777;SDS011;5946;51.770;8.548;2023-11-21T05:52:07;63.97;;;39.33;;
11777;SDS011;5946;51.770;8.548;2023-11-21T05:54:33;68.33;;;40.03;;
11777;SDS011;5946;51.770;8.548;2023-11-21T05:56:59;73.03;;;40.13;;
11777;SDS011;5946;51.770;8.548;2023-11-21T05:59:25;64.60;;;39.73;;
11777;SDS011;5946;51.770;8.548;2023-11-21T06:01:51;69.53;;;42.20;;
11777;SDS011;5946;51.770;8.548;2023-11-21T06:04:18;66.90;;;39.43;;
11777;SDS011;5946;51.770;8.548;2023-11-21T06:06:48;71.80;;;41.97;;
11777;SDS011;5946;51.770;8.548;2023-11-21T06:09:14;76.83;;;42.23;;
11777;SDS011;5946;51.770;8.548;2023-11-21T06:11:40;60.63;;;38.83;;
11777;SDS011;5946;51.770;8.548;2023-11-21T06:14:06;66.40;;;39.83;;
11777;SDS011;5946;51.770;8.548;2023-11-21T06:16:34;59.13;;;37.53;;
11777;SDS011;5946;51.770;8.548;2023-11-21T06:19:00;65.87;;;42.10;;
11777;SDS011;5946;51.770;8.548;2023-11-21T06:21:26;75.47;;;46.67;;
11777;SDS011;5946;51.770;8.548;2023-11-21T06:23:52;71.77;;;44.07;;
11777;SDS011;5946;51.770;8.548;2023-11-21T06:26:18;70.60;;;42.63;;
11777;SDS011;5946;51.770;8.548;2023-11-21T06:28:45;73.00;;;43.03;;
11777;SDS011;5946;51.770;8.548;2023-11-21T06:31:11;79.90;;;44.57;;
11777;SDS011;5946;51.770;8.548;2023-11-21T06:33:37;70.27;;;40.87;;
11777;SDS011;5946;51.770;8.548;2023-11-21T06:36:03;64.63;;;39.33;;
11777;SDS011;5946;51.770;8.548;2023-11-21T06:38:29;63.43;;;39.73;;
11777;SDS011;5946;51.770;8.548;2023-11-21T06:40:57;73.17;;;41.00;;
11777;SDS011;5946;51.770;8.548;2023-11-21T06:43:23;70.43;;;42.37;;
11777;SDS011;5946;51.770;8.548;2023-11-21T06:45:49;78.47;;;41.70;;
11777;SDS011;5946;51.770;8.548;2023-11-21T06:48:15;69.53;;;41.30;;
11777;SDS011;5946;51.770;8.548;2023-11-21T06:50:41;69.00;;;40.63;;
11777;SDS011;5946;51.770;8.548;2023-11-21T06:53:07;90.73;;;45.97;;
11777;SDS011;5946;51.770;8.548;2023-11-21T06:55:34;94.20;;;46.47;;
11777;SDS011;5946;51.770;8.548;2023-11-21T06:58:01;82.70;;;44.80;;
11777;SDS011;5946;51.770;8.548;2023-11-21T07:00:27;94.10;;;47.67;;
11777;SDS011;5946;51.770;8.548;2023-11-21T07:02:54;97.80;;;47.93;;
11777;SDS011;5946;51.770;8.548;2023-11-21T07:05:23;99.73;;;48.43;;
11777;SDS011;5946;51.770;8.548;2023-11-21T07:07:49;92.13;;;47.70;;
11777;SDS011;5946;51.770;8.548;2023-11-21T07:10:15;92.27;;;48.00;;
11777;SDS011;5946;51.770;8.548;2023-11-21T07:12:42;89.83;;;47.07;;
11777;SDS011;5946;51.770;8.548;2023-11-21T07:15:08;94.37;;;46.57;;
11777;SDS011;5946;51.770;8.548;2023-11-21T07:17:34;94.50;;;49.30;;
11777;SDS011;5946;51.770;8.548;2023-11-21T07:20:01;90.37;;;45.73;;
11777;SDS011;5946;51.770;8.548;2023-11-21T07:22:27;87.40;;;45.90;;
11777;SDS011;5946;51.770;8.548;2023-11-21T07:24:53;93.83;;;48.63;;
11777;SDS011;5946;51.770;8.548;2023-11-21T07:27:21;80.20;;;45.97;;
11777;SDS011;5946;51.770;8.548;2023-11-21T07:29:47;94.03;;;47.60;;
11777;SDS011;5946;51.770;8.548;2023-11-21T07:32:13;97.67;;;48.37;;
11777;SDS011;5946;51.770;8.548;2023-11-21T07:34:39;93.80;;;47.60;;
11777;SDS011;5946;51.770;8.548;2023-11-21T07:37:06;99.17;;;46.67;;
11777;SDS011;5946;51.770;8.548;2023-11-21T07:39:33;92.13;;;45.90;;
11777;SDS011;5946;51.770;8.548;2023-11-21T07:41:59;90.90;;;46.00;;
11777;SDS011;5946;51.770;8.548;2023-11-21T07:44:25;98.37;;;47.57;;
11777;SDS011;5946;51.770;8.548;2023-11-21T07:46:51;86.67;;;46.20;;
11777;SDS011;5946;51.770;8.548;2023-11-21T07:49:22;88.73;;;45.73;;
11777;SDS011;5946;51.770;8.548;2023-11-21T07:51:48;100.97;;;50.30;;
11777;SDS011;5946;51.770;8.548;2023-11-21T07:54:14;94.77;;;47.73;;
11777;SDS011;5946;51.770;8.548;2023-11-21T07:56:40;106.87;;;51.70;;
11777;SDS011;5946;51.770;8.548;2023-11-21T07:59:07;91.77;;;49.10;;
11777;SDS011;5946;51.770;8.548;2023-11-21T08:01:33;126.13;;;50.57;;
11777;SDS011;5946;51.770;8.548;2023-11-21T08:03:59;104.93;;;49.70;;
11777;SDS011;5946;51.770;8.548;2023-11-21T08:06:28;97.73;;;48.80;;
11777;SDS011;5946;51.770;8.548;2023-11-21T08:08:54;109.17;;;48.73;;
11777;SDS011;5946;51.770;8.548;2023-11-21T08:11:20;105.63;;;49.17;;
11777;SDS011;5946;51.770;8.548;2023-11-21T08:13:46;112.80;;;51.50;;
11777;SDS011;5946;51.770;8.548;2023-11-21T08:16:12;105.87;;;46.97;;
11777;SDS011;5946;51.770;8.548;2023-11-21T08:18:38;124.97;;;50.40;;
11777;SDS011;5946;51.770;8.548;2023-11-21T08:21:06;111.63;;;48.07;;
11777;SDS011;5946;51.770;8.548;2023-11-21T08:23:32;120.73;;;50.73;;
11777;SDS011;5946;51.770;8.548;2023-11-21T08:25:59;138.03;;;51.30;;
11777;SDS011;5946;51.770;8.548;2023-11-21T08:28:26;115.03;;;49.47;;
11777;SDS011;5946;51.770;8.548;2023-11-21T08:30:52;128.53;;;51.03;;
11777;SDS011;5946;51.770;8.548;2023-11-21T08:33:21;144.07;;;52.23;;
11777;SDS011;5946;51.770;8.548;2023-11-21T08:35:47;124.43;;;51.73;;
11777;SDS011;5946;51.770;8.548;2023-11-21T08:38:13;134.73;;;52.60;;
11777;SDS011;5946;51.770;8.548;2023-11-21T08:40:39;139.10;;;52.67;;
11777;SDS011;5946;51.770;8.548;2023-11-21T08:43:05;117.50;;;47.73;;
11777;SDS011;5946;51.770;8.548;2023-11-21T08:45:33;146.97;;;53.50;;
11777;SDS011;5946;51.770;8.548;2023-11-21T08:47:59;127.07;;;51.53;;
11777;SDS011;5946;51.770;8.548;2023-11-21T08:50:25;139.30;;;53.73;;
11777;SDS011;5946;51.770;8.548;2023-11-21T08:52:51;136.97;;;53.33;;
11777;SDS011;5946;51.770;8.548;2023-11-21T08:55:17;110.53;;;50.47;;
11777;SDS011;5946;51.770;8.548;2023-11-21T08:57:45;135.80;;;53.13;;
11777;SDS011;5946;51.770;8.548;2023-11-21T09:00:14;140.17;;;53.13;;
11777;SDS011;5946;51.770;8.548;2023-11-21T09:02:42;130.80;;;52.53;;
11777;SDS011;5946;51.770;8.548;2023-11-21T09:05:08;104.97;;;48.57;;
11777;SDS011;5946;51.770;8.548;2023-11-21T09:07:34;120.93;;;53.17;;
11777;SDS011;5946;51.770;8.548;2023-11-21T09:10:01;99.07;;;47.33;;
11777;SDS011;5946;51.770;8.548;2023-11-21T09:12:27;105.33;;;45.17;;
11777;SDS011;5946;51.770;8.548;2023-11-21T09:14:53;97.23;;;46.00;;
11777;SDS011;5946;51.770;8.548;2023-11-21T09:17:19;96.73;;;45.33;;
11777;SDS011;5946;51.770;8.548;2023-11-21T09:19:45;113.17;;;45.20;;
11777;SDS011;5946;51.770;8.548;2023-11-21T09:22:15;99.80;;;43.80;;
11777;SDS011;5946;51.770;8.548;2023-11-21T09:24:41;100.30;;;44.17;;
11777;SDS011;5946;51.770;8.548;2023-11-21T09:27:07;108.10;;;44.13;;
11777;SDS011;5946;51.770;8.548;2023-11-21T09:29:34;98.23;;;41.97;;
11777;SDS011;5946;51.770;8.548;2023-11-21T09:32:00;90.87;;;40.83;;
11777;SDS011;5946;51.770;8.548;2023-11-21T09:34:26;102.57;;;40.63;;
11777;SDS011;5946;51.770;8.548;2023-11-21T09:36:52;92.07;;;40.70;;
11777;SDS011;5946;51.770;8.548;2023-11-21T09:39:18;80.80;;;38.03;;
11777;SDS011;5946;51.770;8.548;2023-11-21T09:41:51;90.17;;;39.80;;
11777;SDS011;5946;51.770;8.548;2023-11-21T09:44:23;85.40;;;36.70;;
11777;SDS011;5946;51.770;8.548;2023-11-21T09:46:56;84.20;;;37.13;;
11777;SDS011;5946;51.770;8.548;2023-11-21T09:49:25;87.93;;;37.57;;
11777;SDS011;5946;51.770;8.548;2023-11-21T09:51:53;91.43;;;37.30;;
11777;SDS011;5946;51.770;8.548;2023-11-21T09:54:22;88.23;;;37.47;;
11777;SDS011;5946;51.770;8.548;2023-11-21T09:56:48;95.30;;;37.63;;
11777;SDS011;5946;51.770;8.548;2023-11-21T09:59:15;85.50;;;36.83;;
11777;SDS011;5946;51.770;8.548;2023-11-21T10:01:41;76.77;;;36.23;;
11777;SDS011;5946;51.770;8.548;2023-11-21T10:04:11;76.87;;;34.37;;
11777;SDS011;5946;51.770;8.548;2023-11-21T10:06:40;97.43;;;37.73;;
11777;SDS011;5946;51.770;8.548;2023-11-21T10:09:08;84.63;;;35.20;;
11777;SDS011;5946;51.770;8.548;2023-11-21T10:11:38;99.43;;;37.50;;
11777;SDS011;5946;51.770;8.548;2023-11-21T10:14:06;85.37;;;35.80;;
11777;SDS011;5946;51.770;8.548;2023-11-21T10:16:35;76.03;;;33.43;;
11777;SDS011;5946;51.770;8.548;2023-11-21T10:19:02;77.97;;;33.33;;
11777;SDS011;5946;51.770;8.548;2023-11-21T10:21:28;92.23;;;35.70;;
11777;SDS011;5946;51.770;8.548;2023-11-21T10:23:54;103.00;;;38.07;;
11777;SDS011;5946;51.770;8.548;2023-11-21T10:26:22;80.53;;;34.80;;
11777;SDS011;5946;51.770;8.548;2023-11-21T10:28:58;95.27;;;36.77;;
11777;SDS011;5946;51.770;8.548;2023-11-21T10:31:27;89.27;;;36.57;;
11777;SDS011;5946;51.770;8.548;2023-11-21T10:33:53;90.10;;;34.93;;
11777;SDS011;5946;51.770;8.548;2023-11-21T10:36:25;80.50;;;33.23;;
11777;SDS011;5946;51.770;8.548;2023-11-21T10:38:52;84.23;;;33.07;;
11777;SDS011;5946;51.770;8.548;2023-11-21T10:41:18;72.17;;;31.97;;
11777;SDS011;5946;51.770;8.548;2023-11-21T10:43:44;79.40;;;34.53;;
11777;SDS011;5946;51.770;8.548;2023-11-21T10:46:10;71.20;;;32.23;;
11777;SDS011;5946;51.770;8.548;2023-11-21T10:48:36;73.17;;;32.20;;
11777;SDS011;5946;51.770;8.548;2023-11-21T10:51:06;85.37;;;32.43;;
11777;SDS011;5946;51.770;8.548;2023-11-21T10:53:32;74.50;;;31.30;;
11777;SDS011;5946;51.770;8.548;2023-11-21T10:56:02;82.57;;;33.87;;
11777;SDS011;5946;51.770;8.548;2023-11-21T10:58:31;71.43;;;32.27;;
11777;SDS011;5946;51.770;8.548;2023-11-21T11:00:57;66.23;;;32.50;;
11777;SDS011;5946;51.770;8.548;2023-11-21T11:03:24;74.27;;;33.20;;
11777;SDS011;5946;51.770;8.548;2023-11-21T11:05:51;78.03;;;33.00;;
11777;SDS011;5946;51.770;8.548;2023-11-21T11:08:20;78.30;;;32.63;;
11777;SDS011;5946;51.770;8.548;2023-11-21T11:10:51;69.87;;;31.10;;
11777;SDS011;5946;51.770;8.548;2023-11-21T11:13:17;68.87;;;29.47;;
11777;SDS011;5946;51.770;8.548;2023-11-21T11:15:46;59.50;;;28.40;;
11777;SDS011;5946;51.770;8.548;2023-11-21T11:18:12;53.67;;;26.20;;
11777;SDS011;5946;51.770;8.548;2023-11-21T11:20:39;47.67;;;23.57;;
11777;SDS011;5946;51.770;8.548;2023-11-21T11:25:52;45.07;;;21.73;;
11777;SDS011;5946;51.770;8.548;2023-11-21T11:28:26;42.73;;;21.03;;
11777;SDS011;5946;51.770;8.548;2023-11-21T11:33:44;35.70;;;16.83;;
11777;SDS011;5946;51.770;8.548;2023-11-21T11:38:44;33.53;;;16.20;;
11777;SDS011;5946;51.770;8.548;2023-11-21T11:41:10;31.17;;;15.33;;
11777;SDS011;5946;51.770;8.548;2023-11-21T11:43:37;27.90;;;14.70;;
11777;SDS011;5946;51.770;8.548;2023-11-21T11:46:09;29.00;;;14.70;;
11777;SDS011;5946;51.770;8.548;2023-11-21T11:48:39;30.27;;;15.13;;
11777;SDS011;5946;51.770;8.548;2023-11-21T11:51:06;26.30;;;14.60;;
11777;SDS011;5946;51.770;8.548;2023-11-21T11:53:40;30.27;;;17.00;;
11777;SDS011;5946;51.770;8.548;2023-11-21T11:56:19;26.73;;;14.33;;
11777;SDS011;5946;51.770;8.548;2023-11-21T11:58:47;25.63;;;14.27;;
11777;SDS011;5946;51.770;8.548;2023-11-21T12:01:15;20.27;;;13.60;;
11777;SDS011;5946;51.770;8.548;2023-11-21T12:03:42;25.33;;;13.53;;
11777;SDS011;5946;51.770;8.548;2023-11-21T12:06:08;21.30;;;12.50;;
11777;SDS011;5946;51.770;8.548;2023-11-21T12:08:36;20.20;;;12.23;;
11777;SDS011;5946;51.770;8.548;2023-11-21T12:11:03;17.53;;;11.40;;
11777;SDS011;5946;51.770;8.548;2023-11-21T12:13:29;20.13;;;12.60;;
11777;SDS011;5946;51.770;8.548;2023-11-21T12:15:55;18.87;;;11.60;;
11777;SDS011;5946;51.770;8.548;2023-11-21T12:18:21;17.97;;;12.73;;
11777;SDS011;5946;51.770;8.548;2023-11-21T12:20:47;20.10;;;11.90;;
11777;SDS011;5946;51.770;8.548;2023-11-21T12:23:15;22.30;;;13.30;;
11777;SDS011;5946;51.770;8.548;2023-11-21T12:25:42;22.37;;;13.70;;
11777;SDS011;5946;51.770;8.548;2023-11-21T12:28:08;17.63;;;12.97;;
11777;SDS011;5946;51.770;8.548;2023-11-21T12:30:35;20.43;;;14.33;;
11777;SDS011;5946;51.770;8.548;2023-11-21T12:33:03;20.23;;;14.33;;
11777;SDS011;5946;51.770;8.548;2023-11-21T12:35:33;21.67;;;16.10;;
11777;SDS011;5946;51.770;8.548;2023-11-21T12:37:59;21.07;;;15.67;;
11777;SDS011;5946;51.770;8.548;2023-11-21T12:40:27;21.60;;;16.27;;
11777;SDS011;5946;51.770;8.548;2023-11-21T12:42:55;23.40;;;15.70;;
11777;SDS011;5946;51.770;8.548;2023-11-21T12:45:23;21.33;;;15.37;;
11777;SDS011;5946;51.770;8.548;2023-11-21T12:47:51;25.17;;;17.17;;
11777;SDS011;5946;51.770;8.548;2023-11-21T12:50:21;23.20;;;15.90;;
11777;SDS011;5946;51.770;8.548;2023-11-21T12:52:49;23.07;;;16.83;;
11777;SDS011;5946;51.770;8.548;2023-11-21T12:55:16;20.73;;;16.53;;
11777;SDS011;5946;51.770;8.548;2023-11-21T12:57:43;21.53;;;15.57;;
11777;SDS011;5946;51.770;8.548;2023-11-21T13:00:09;20.77;;;15.97;;
11777;SDS011;5946;51.770;8.548;2023-11-21T13:02:48;21.73;;;16.07;;
11777;SDS011;5946;51.770;8.548;2023-11-21T13:05:22;22.60;;;16.13;;
11777;SDS011;5946;51.770;8.548;2023-11-21T13:07:49;22.93;;;15.93;;
11777;SDS011;5946;51.770;8.548;2023-11-21T13:10:19;21.97;;;16.07;;
11777;SDS011;5946;51.770;8.548;2023-11-21T13:12:45;22.80;;;16.37;;
11777;SDS011;5946;51.770;8.548;2023-11-21T13:15:16;23.67;;;17.40;;
11777;SDS011;5946;51.770;8.548;2023-11-21T13:17:43;24.40;;;17.83;;
11777;SDS011;5946;51.770;8.548;2023-11-21T13:20:12;27.83;;;17.53;;
11777;SDS011;5946;51.770;8.548;2023-11-21T13:22:54;25.30;;;18.87;;
11777;SDS011;5946;51.770;8.548;2023-11-21T13:25:28;27.33;;;19.13;;
11777;SDS011;5946;51.770;8.548;2023-11-21T13:27:54;27.23;;;19.30;;
11777;SDS011;5946;51.770;8.548;2023-11-21T13:30:21;26.27;;;19.00;;
11777;SDS011;5946;51.770;8.548;2023-11-21T13:32:48;25.23;;;16.63;;
11777;SDS011;5946;51.770;8.548;2023-11-21T13:35:17;25.63;;;15.67;;
11777;SDS011;5946;51.770;8.548;2023-11-21T13:37:55;26.67;;;14.77;;
11777;SDS011;5946;51.770;8.548;2023-11-21T13:40:24;19.27;;;12.80;;
11777;SDS011;5946;51.770;8.548;2023-11-21T13:42:53;20.90;;;13.50;;
11777;SDS011;5946;51.770;8.548;2023-11-21T13:45:22;16.80;;;11.53;;
11777;SDS011;5946;51.770;8.548;2023-11-21T13:47:50;16.63;;;11.80;;
11777;SDS011;5946;51.770;8.548;2023-11-21T13:50:17;15.07;;;11.93;;
11777;SDS011;5946;51.770;8.548;2023-11-21T13:52:47;16.63;;;11.80;;
11777;SDS011;5946;51.770;8.548;2023-11-21T13:55:14;16.47;;;12.43;;
11777;SDS011;5946;51.770;8.548;2023-11-21T13:57:40;19.70;;;14.03;;
11777;SDS011;5946;51.770;8.548;2023-11-21T14:00:10;17.47;;;13.03;;
11777;SDS011;5946;51.770;8.548;2023-11-21T14:03:13;20.17;;;14.10;;
11777;SDS011;5946;51.770;8.548;2023-11-21T14:05:46;18.70;;;11.80;;
11777;SDS011;5946;51.770;8.548;2023-11-21T14:08:16;16.27;;;12.67;;
11777;SDS011;5946;51.770;8.548;2023-11-21T14:10:45;16.13;;;12.10;;
11777;SDS011;5946;51.770;8.548;2023-11-21T14:13:15;17.83;;;12.40;;
11777;SDS011;5946;51.770;8.548;2023-11-21T14:15:42;15.87;;;12.00;;
11777;SDS011;5946;51.770;8.548;2023-11-21T14:18:11;17.67;;;12.40;;
11777;SDS011;5946;51.770;8.548;2023-11-21T14:20:42;16.73;;;12.00;;
11777;SDS011;5946;51.770;8.548;2023-11-21T14:23:09;17.03;;;12.43;;
11777;SDS011;5946;51.770;8.548;2023-11-21T14:25:35;17.43;;;12.67;;
11777;SDS011;5946;51.770;8.548;2023-11-21T14:28:02;15.93;;;12.13;;
11777;SDS011;5946;51.770;8.548;2023-11-21T14:30:29;15.33;;;11.97;;
11777;SDS011;5946;51.770;8.548;2023-11-21T14:32:57;19.50;;;12.20;;
11777;SDS011;5946;51.770;8.548;2023-11-21T14:35:23;16.47;;;11.83;;
11777;SDS011;5946;51.770;8.548;2023-11-21T14:37:49;16.67;;;12.30;;
11777;SDS011;5946;51.770;8.548;2023-11-21T14:40:17;13.87;;;10.37;;